Aérodrome :
LOGIN :

S'inscrire | Disclaimer

   EN    FR    IT 

 










Légende :    VFR   VFR Marginal   IFR   IFR Intensif   IFR Très Intensif
Visi : 
Plafond : 
>= 8 km
>= 3000ft
5 à 8 km
1000 à 3000 ft
1500m à 5 km
500 à 1000 ft
800 à 1500m
200 à 500 ft
< 800m
< 200 ft
Symboles :   Orages  Brouillard  Fortes neiges  Fortes précipitations  Vent > 20 kt
SIGMETs :   Divers  Orages  Givrage  Turbulence  Onde Orograph.  Cendres Volcan.







- Altitude de l'aérodrome : 215 ft
- Code IATA : TAR


LIBG - Grottaglie Arpt. Taranto

DERNIER METAR :
  • 221450Z 15015G28KT 9999 SCT015 SCT045 16/14 Q1012

METARs EXPIRÉS :
  • 221350Z 15014KT 9999 SCT015 SCT045 16/14 Q1013
  • 221250Z 16013G24KT 9999 SCT015 SCT045 16/14 Q1014

TAF TAF LIBG
Valide du 22 à 15h jusqu'au 23 à 00h UTC


221400Z 2215/2224 15015G25KT 9999 FEW020
TEMPO 2218/2221 RA
Pas de NOTAMs connus pour ce terrain.
2 SIGMETs publiés pour la FIR Brindisi (LIBB) :
 
Turbulence forte
LIBB SIGMET 3 VALID 221605/222005 LIIB
LIBB BRINDISI FIR SEV TURB FCST WI N4252 E01529 - N4157 E01357 - N4125 E01427 - N4111 E01507 - N3912 E01621 - N4035 E01859 - N4106 E01850 - N4252 E01529 SFC/FL120 STNR NC=
Turbulence forte
LIBB SIGMET 2 VALID 221205/221605 LIIB
LIBB BRINDISI FIR SEV TURB FCST WI N4252 E01529 - N4157 E01357 - N4125 E01427 - N4111 E01507 - N3912 E01621 - N4035 E01859 - N4106 E01850 - N4252 E01529 SFC/FL120 STNR NC=



MET'MAP, la Météo Aéronautique d'un coup d'oeil ! - Copyright ORBIFLY Décembre 2007 - Disclaimer

ORBIFLY MET'MAP TEAM :

Programmation & Développement : Alexandra Zaïnal
Conception & Développement : Baudouin d'Aumeries
Co-Programmation & Développement : Marc-Olivier Méhu
Soutien technique & logistique : Manuel Goepfert

Contact : metmap@orbifly.com




SOURCES & CREDITS :

   NOAA